Time;durP1;ratioP1;P1;durP2;ratioP2;P2;SDS_P1;SDS_P2;PMS_P1;PMS_P2;Temp;Humidity;BMP_temperature;BMP_pressure;BME280_temperature;BME280_humidity;BME280_pressure;Samples;Min_cycle;Max_cycle;Signal;HPM_P1;HPM_P2
2022/02/11 00:08:32;;;;;;;32.63;18.40;;;;;;;2.00;100.00;100431.47;6297726;28;20134;-67
2022/02/11 00:11:39;;;;;;;28.00;16.88;;;;;;;1.92;100.00;100441.06;6322610;28;20048;-67
2022/02/11 00:14:49;;;;;;;37.58;18.48;;;;;;;2.08;100.00;100435.59;6320925;28;20044;-72
2022/02/11 00:17:50;;;;;;;33.40;19.42;;;;;;;2.16;100.00;100436.28;6321769;28;20048;-72
2022/02/11 00:20:52;;;;;;;34.00;18.85;;;;;;;2.10;100.00;100434.72;6304158;28;20055;-68
2022/02/11 00:23:53;;;;;;;37.70;19.40;;;;;;;2.02;100.00;100431.44;6304559;28;20044;-67
2022/02/11 00:33:44;;;;;;;37.25;19.90;;;;;;;1.99;100.00;100434.91;6279555;28;20052;-72
2022/02/11 00:37:00;;;;;;;34.00;19.63;;;;;;;2.05;100.00;100433.09;6279096;28;20127;-67
2022/02/11 01:03:18;;;;;;;33.90;19.90;;;;;;;2.05;100.00;100431.38;6283333;28;20041;-68
2022/02/11 01:06:19;;;;;;;40.60;21.65;;;;;;;2.04;100.00;100428.81;6284778;28;20032;-72
2022/02/11 01:09:20;;;;;;;38.80;21.33;;;;;;;1.98;100.00;100424.66;6301226;28;20475;-72
2022/02/11 01:12:22;;;;;;;40.95;20.20;;;;;;;1.95;100.00;100427.28;6300869;28;20048;-71
2022/02/11 01:15:24;;;;;;;55.97;19.92;;;;;;;1.81;100.00;100425.84;6282855;28;20397;-72
2022/02/11 01:18:25;;;;;;;94.25;19.95;;;;;;;1.79;100.00;100417.28;6300768;28;20079;-71
2022/02/11 01:21:36;;;;;;;99.53;19.67;;;;;;;1.75;100.00;100419.94;6282827;28;20044;-71
2022/02/11 01:57:34;;;;;;;;;;;;;;;1.34;100.00;100419.81;6325327;28;20097;-67
2022/02/11 02:13:37;;;;;;;27.27;15.63;;;;;;;1.21;100.00;100402.88;6306989;28;20040;-67
2022/02/11 03:16:18;;;;;;;43.97;20.33;;;;;;;0.73;100.00;100411.38;6297891;28;20378;-72
2022/02/11 03:49:12;;;;;;;38.70;20.15;;;;;;;0.67;100.00;100428.59;6267786;28;20123;-71
2022/02/11 04:21:59;;;;;;;37.45;20.48;;;;;;;0.31;100.00;100462.44;6296596;28;20043;-67
2022/02/11 04:55:00;;;;;;;42.28;23.20;;;;;;;0.24;100.00;100431.72;6296290;28;20056;-72
2022/02/11 05:01:20;;;;;;;53.47;27.85;;;;;;;0.10;100.00;100444.72;6267031;28;20036;-67
2022/02/11 05:04:21;;;;;;;41.08;23.83;;;;;;;0.08;100.00;100447.31;6281187;28;20043;-71
2022/02/11 05:07:22;;;;;;;38.25;21.30;;;;;;;0.08;100.00;100451.59;6290738;28;20040;-67
2022/02/11 05:10:23;;;;;;;43.92;22.83;;;;;;;-0.07;100.00;100455.19;6278892;28;20033;-71
2022/02/11 05:13:24;;;;;;;61.88;26.98;;;;;;;-0.19;100.00;100451.03;6297185;28;20151;-72
2022/02/11 05:16:26;;;;;;;51.72;28.05;;;;;;;-0.01;100.00;100455.97;6303331;28;20040;-72
2022/02/11 05:19:27;;;;;;;53.00;27.35;;;;;;;0.03;100.00;100469.59;6321419;28;20040;-72
2022/02/11 05:22:27;;;;;;;47.35;26.15;;;;;;;0.06;100.00;100467.00;6321602;28;20119;-72
2022/02/11 05:25:28;;;;;;;38.80;22.40;;;;;;;0.14;100.00;100456.66;6286710;28;20033;-71
2022/02/11 05:28:29;;;;;;;38.90;23.35;;;;;;;0.10;100.00;100471.22;6303582;28;20040;-67
2022/02/11 05:31:30;;;;;;;38.42;21.33;;;;;;;0.14;100.00;100461.78;6318695;28;20048;-72
2022/02/11 05:34:31;;;;;;;39.60;23.13;;;;;;;0.11;100.00;100454.97;6278779;28;20072;-68
2022/02/11 05:37:32;;;;;;;41.05;23.60;;;;;;;0.05;100.00;100479.88;6296281;28;20415;-68
2022/02/11 05:40:34;;;;;;;38.50;21.88;;;;;;;-0.02;100.00;100482.50;6278308;28;20039;-72
2022/02/11 05:43:35;;;;;;;34.35;21.30;;;;;;;-0.04;100.00;100478.25;6263170;28;20052;-67
2022/02/11 05:46:36;;;;;;;43.63;21.98;;;;;;;-0.06;100.00;100497.94;6304672;28;20036;-67
2022/02/11 05:49:37;;;;;;;39.72;21.33;;;;;;;-0.04;100.00;100485.94;6264192;28;20037;-71
2022/02/11 05:52:38;;;;;;;56.63;23.33;;;;;;;-0.15;100.00;100501.44;6306596;28;20048;-69
2022/02/11 05:55:39;;;;;;;50.70;23.45;;;;;;;-0.22;100.00;100484.41;6308676;28;20386;-67
2022/02/11 05:58:41;;;;;;;64.57;25.13;;;;;;;-0.12;100.00;100498.00;6282160;28;20044;-68
2022/02/11 06:01:42;;;;;;;53.70;24.00;;;;;;;-0.17;100.00;100474.94;6299775;28;20399;-72
2022/02/11 06:04:43;;;;;;;57.53;27.42;;;;;;;-0.31;100.00;100482.78;6321399;28;20119;-71
2022/02/11 06:07:44;;;;;;;49.55;24.80;;;;;;;-0.17;100.00;100476.66;6289759;28;20461;-72
2022/02/11 06:10:46;;;;;;;38.03;22.10;;;;;;;-0.13;100.00;100499.69;6299301;28;20382;-72
2022/02/11 06:13:47;;;;;;;38.35;20.80;;;;;;;-0.12;100.00;100488.59;6287495;28;20060;-72
2022/02/11 06:16:49;;;;;;;36.55;21.08;;;;;;;-0.16;100.00;100496.34;6265050;28;20072;-72
2022/02/11 06:19:51;;;;;;;36.80;20.70;;;;;;;-0.06;100.00;100487.69;6299268;28;20041;-71
2022/02/11 06:22:52;;;;;;;40.38;22.83;;;;;;;-0.02;100.00;100497.88;6281609;28;20548;-67
2022/02/11 06:25:53;;;;;;;40.78;23.17;;;;;;;0.16;100.00;100501.94;6281250;28;20053;-68
2022/02/11 06:28:57;;;;;;;36.58;21.50;;;;;;;0.17;100.00;100510.53;6298995;28;20124;-67
2022/02/11 06:31:58;;;;;;;45.28;22.00;;;;;;;0.01;100.00;100527.78;6298099;28;20052;-67
2022/02/11 06:34:59;;;;;;;39.55;21.23;;;;;;;0.04;100.00;100516.63;6288811;28;20041;-67
2022/02/11 06:38:00;;;;;;;39.22;20.70;;;;;;;0.18;100.00;100537.88;6306803;28;20185;-67
2022/02/11 06:41:01;;;;;;;39.25;22.23;;;;;;;0.19;100.00;100524.19;6324086;28;20047;-67
2022/02/11 06:44:02;;;;;;;40.80;21.38;;;;;;;0.27;100.00;100527.53;6305621;28;20496;-67
2022/02/11 06:47:03;;;;;;;42.05;21.95;;;;;;;0.32;100.00;100530.88;6305769;28;20066;-71
2022/02/11 06:50:05;;;;;;;41.35;22.70;;;;;;;0.31;100.00;100536.00;6323429;28;20054;-67
2022/02/11 06:53:05;;;;;;;41.75;22.20;;;;;;;0.35;100.00;100535.97;6305495;28;20438;-67
2022/02/11 06:56:06;;;;;;;42.88;21.60;;;;;;;0.36;100.00;100542.81;6323099;28;20106;-71
2022/02/11 06:59:07;;;;;;;47.45;23.63;;;;;;;0.55;100.00;100540.03;6305250;28;20515;-71
2022/02/11 07:02:18;;;;;;;39.08;21.90;;;;;;;0.69;100.00;100538.13;6304629;28;20040;-72
2022/02/11 07:05:19;;;;;;;37.13;20.70;;;;;;;0.75;100.00;100540.63;6323235;28;20393;-67
2022/02/11 07:08:20;;;;;;;48.63;22.80;;;;;;;0.86;100.00;100542.22;6288722;28;20044;-67
2022/02/11 07:11:21;;;;;;;41.58;22.35;;;;;;;0.98;100.00;100544.63;6305023;28;20564;-67
2022/02/11 07:14:22;;;;;;;39.25;21.58;;;;;;;1.04;100.00;100544.53;6305184;28;20441;-67
2022/02/11 07:17:23;;;;;;;46.50;22.77;;;;;;;1.17;100.00;100533.22;6322938;28;20122;-67
2022/02/11 07:20:24;;;;;;;47.92;23.67;;;;;;;1.32;100.00;100541.53;6322809;28;20036;-68
2022/02/11 07:23:25;;;;;;;41.70;23.23;;;;;;;1.32;100.00;100533.81;6304808;28;20403;-71
2022/02/11 07:26:26;;;;;;;46.90;23.88;;;;;;;1.36;100.00;100538.06;6322874;28;20036;-71
2022/02/11 07:29:26;;;;;;;55.65;29.77;;;;;;;1.48;100.00;100539.59;6322640;28;20602;-67
2022/02/11 07:32:28;;;;;;;45.75;24.35;;;;;;;1.56;100.00;100536.00;6304428;28;20040;-67
2022/02/11 07:35:29;;;;;;;45.85;24.17;;;;;;;1.56;100.00;100532.59;6304798;28;20412;-67
2022/02/11 07:38:31;;;;;;;52.00;25.90;;;;;;;1.79;100.00;100529.63;6304241;28;20545;-67
2022/02/11 07:41:32;;;;;;;50.35;25.60;;;;;;;1.87;100.00;100543.22;6287992;28;20044;-72
2022/02/11 07:44:32;;;;;;;46.63;24.55;;;;;;;1.95;100.00;100543.09;6304278;28;20046;-72
2022/02/11 07:47:33;;;;;;;43.25;24.23;;;;;;;2.15;100.00;100542.75;6287613;28;20115;-68
2022/02/11 07:50:34;;;;;;;44.70;24.48;;;;;;;2.18;100.00;100545.25;6287474;28;20067;-71
2022/02/11 07:53:35;;;;;;;48.53;26.15;;;;;;;2.33;100.00;100537.25;6287507;28;20134;-67
2022/02/11 07:56:36;;;;;;;48.05;24.92;;;;;;;2.56;100.00;100546.25;6287259;28;20071;-72
2022/02/11 07:59:37;;;;;;;47.17;24.90;;;;;;;2.52;100.00;100548.03;6303750;28;20111;-72
2022/02/11 08:02:38;;;;;;;50.00;25.65;;;;;;;2.65;100.00;100546.03;6322280;28;20047;-72
2022/02/11 08:05:39;;;;;;;44.60;25.47;;;;;;;2.70;100.00;100541.66;6303925;28;20043;-72
2022/02/11 08:08:40;;;;;;;39.38;23.38;;;;;;;2.91;100.00;100539.50;6303772;28;20467;-71
2022/02/11 08:11:41;;;;;;;46.80;23.63;;;;;;;2.99;100.00;100533.31;6286017;28;20044;-72
2022/02/11 08:14:42;;;;;;;41.67;22.73;;;;;;;3.07;100.00;100540.00;6303748;28;20082;-72
2022/02/11 08:17:43;;;;;;;43.70;22.90;;;;;;;3.19;100.00;100530.28;6286753;28;20051;-72
2022/02/11 08:20:44;;;;;;;41.40;22.80;;;;;;;3.30;100.00;100536.94;6303374;28;20047;-72
2022/02/11 08:23:45;;;;;;;50.35;23.83;;;;;;;3.57;100.00;100538.84;6303584;28;20036;-72
2022/02/11 08:26:46;;;;;;;44.92;24.38;;;;;;;3.72;98.88;100542.75;6321327;28;20038;-72
2022/02/11 08:29:47;;;;;;;44.75;23.58;;;;;;;3.68;98.89;100543.72;6303269;28;20610;-72
2022/02/11 08:32:48;;;;;;;46.15;25.15;;;;;;;3.56;99.79;100544.91;6286681;28;20059;-68
2022/02/11 08:35:50;;;;;;;43.05;24.23;;;;;;;3.90;98.77;100540.63;6321223;28;20074;-72
2022/02/11 08:38:51;;;;;;;48.33;25.02;;;;;;;4.01;98.64;100542.00;6321278;28;20115;-72
2022/02/11 08:41:53;;;;;;;50.50;25.88;;;;;;;4.13;97.85;100540.84;6321112;28;20059;-68
2022/02/11 08:44:54;;;;;;;41.80;23.27;;;;;;;4.35;96.44;100545.47;6303152;28;20036;-68
2022/02/11 08:47:54;;;;;;;42.80;23.40;;;;;;;4.45;96.29;100541.72;6321091;28;20131;-72
2022/02/11 08:50:55;;;;;;;48.38;26.13;;;;;;;4.61;95.05;100535.22;6321367;28;20040;-69
2022/02/11 08:53:56;;;;;;;44.92;25.05;;;;;;;4.90;95.91;100540.44;6303035;28;20036;-72
2022/02/11 08:56:57;;;;;;;44.00;22.73;;;;;;;4.89;96.42;100538.75;6302873;28;20063;-72
2022/02/11 08:59:58;;;;;;;39.65;22.88;;;;;;;4.88;94.99;100535.31;6302981;28;20511;-68
2022/02/11 09:02:59;;;;;;;44.85;23.77;;;;;;;5.05;93.60;100530.47;6320802;28;20052;-72
2022/02/11 09:06:01;;;;;;;44.88;23.42;;;;;;;5.25;94.96;100534.19;6286201;28;20044;-72
2022/02/11 09:09:04;;;;;;;45.97;22.60;;;;;;;5.38;93.76;100532.06;6321202;28;20040;-72
2022/02/11 09:12:05;;;;;;;37.63;23.45;;;;;;;5.24;93.72;100529.91;6320717;28;20071;-73
2022/02/11 09:15:06;;;;;;;47.63;24.90;;;;;;;5.56;91.83;100535.78;6286326;28;20491;-73
2022/02/11 09:18:08;;;;;;;39.92;22.08;;;;;;;5.65;93.07;100532.91;6302772;28;20044;-69
2022/02/11 09:21:09;;;;;;;39.22;23.85;;;;;;;5.64;92.34;100528.63;6320460;28;20044;-69
2022/02/11 09:24:10;;;;;;;40.97;23.60;;;;;;;5.98;90.64;100523.19;6305224;28;20488;-69
2022/02/11 09:27:11;;;;;;;40.72;22.50;;;;;;;6.07;90.19;100524.59;6307538;28;20036;-68
2022/02/11 09:30:22;;;;;;;46.00;24.60;;;;;;;6.25;89.16;100531.72;6307445;28;20119;-72
2022/02/11 09:33:23;;;;;;;45.63;23.92;;;;;;;6.23;88.89;100532.69;6325483;28;20044;-72
2022/02/11 09:36:24;;;;;;;43.90;23.00;;;;;;;6.19;86.95;100526.75;6290997;28;20036;-68
2022/02/11 09:39:25;;;;;;;42.92;23.90;;;;;;;6.33;87.89;100536.66;6325282;28;20036;-68
2022/02/11 09:42:27;;;;;;;43.53;24.35;;;;;;;6.63;88.63;100532.09;6325158;28;20036;-72
2022/02/11 09:45:28;;;;;;;39.78;22.75;;;;;;;6.74;85.47;100538.63;6307366;28;20073;-69
2022/02/11 09:48:29;;;;;;;43.03;23.98;;;;;;;6.87;84.75;100532.06;6325153;28;20043;-68
2022/02/11 09:51:32;;;;;;;41.95;23.90;;;;;;;7.00;85.24;100543.69;6306955;28;20123;-68
2022/02/11 09:54:33;;;;;;;38.25;21.58;;;;;;;7.13;83.72;100519.88;6306862;28;20052;-72
2022/02/11 09:57:34;;;;;;;34.97;21.57;;;;;;;7.13;86.59;100538.03;6307122;28;20126;-69
2022/02/11 10:00:38;;;;;;;40.50;22.58;;;;;;;7.02;84.84;100530.63;6290028;28;20166;-68
2022/02/11 10:03:39;;;;;;;36.17;21.25;;;;;;;7.11;86.04;100529.47;6324819;28;20036;-69
2022/02/11 10:06:40;;;;;;;32.95;20.58;;;;;;;7.30;85.56;100516.59;6289767;28;20051;-68
2022/02/11 10:09:42;;;;;;;37.22;20.52;;;;;;;7.59;84.69;100529.22;6290110;28;20043;-68
2022/02/11 10:12:43;;;;;;;32.40;20.27;;;;;;;7.48;84.28;100521.03;6324431;28;20046;-68
2022/02/11 10:15:48;;;;;;;38.95;21.83;;;;;;;7.78;86.03;100523.25;6289803;28;20049;-68
2022/02/11 10:18:51;;;;;;;34.55;21.38;;;;;;;7.88;84.76;100520.22;6324415;28;20032;-73
2022/02/11 10:22:05;;;;;;;;;;;;;;;7.80;85.53;100513.66;6290255;28;20044;-69
2022/02/11 10:25:06;;;;;;;36.65;22.17;;;;;;;7.67;88.58;100518.53;6324293;28;19927;-73
2022/02/11 10:28:23;;;;;;;44.42;23.05;;;;;;;7.75;84.06;100505.22;6324117;28;20036;-73
2022/02/11 10:31:34;;;;;;;39.13;21.20;;;;;;;7.91;82.92;100508.88;6324504;28;20040;-69
2022/02/11 10:34:39;;;;;;;37.67;21.17;;;;;;;8.00;84.00;100505.03;6323515;28;20052;-68
2022/02/11 10:38:06;;;;;;;40.10;21.35;;;;;;;8.28;82.07;100496.88;6305691;28;20292;-68
2022/02/11 10:41:07;;;;;;;37.78;22.05;;;;;;;8.31;82.29;100499.31;6305900;28;20044;-68
2022/02/11 10:44:13;;;;;;;40.85;21.25;;;;;;;8.28;83.06;100497.72;6305893;28;20040;-69
2022/02/11 10:47:16;;;;;;;43.25;22.10;;;;;;;8.44;83.59;100495.31;6323941;28;20506;-72
2022/02/11 10:50:17;;;;;;;33.47;21.55;;;;;;;8.85;82.19;100489.97;6323625;28;20044;-73
2022/02/11 10:53:29;;;;;;;36.15;20.85;;;;;;;8.80;82.18;100491.91;6305597;28;20040;-68
2022/02/11 10:56:30;;;;;;;40.80;22.40;;;;;;;9.02;82.78;100485.72;6323271;28;20214;-68
2022/02/11 10:59:34;;;;;;;40.38;22.40;;;;;;;9.18;83.04;100488.41;6305526;28;20040;-73
2022/02/11 11:02:36;;;;;;;41.17;22.33;;;;;;;9.39;82.25;100478.69;6323144;28;20048;-73
2022/02/11 11:05:40;;;;;;;41.93;23.03;;;;;;;9.42;79.99;100468.97;6323411;28;20048;-68
2022/02/11 11:08:41;;;;;;;36.75;21.50;;;;;;;9.28;80.74;100471.41;6323158;28;20051;-69
2022/02/11 11:11:47;;;;;;;38.03;22.17;;;;;;;9.27;81.93;100480.16;6288676;28;20071;-69
2022/02/11 11:14:54;;;;;;;32.63;20.15;;;;;;;9.39;80.73;100474.34;6305281;28;20472;-73
2022/02/11 11:17:56;;;;;;;35.85;21.20;;;;;;;9.56;82.41;100470.91;6322948;28;20458;-68
2022/02/11 11:20:58;;;;;;;34.33;20.92;;;;;;;9.54;80.08;100470.13;6322922;28;20066;-73
2022/02/11 11:24:00;;;;;;;35.92;20.08;;;;;;;9.62;79.86;100469.75;6322629;28;20484;-72
2022/02/11 11:27:01;;;;;;;;;;;;;;;9.98;79.78;100474.00;6288780;28;20044;-68
2022/02/11 11:30:31;;;;;;;30.20;19.45;;;;;;;9.69;80.42;100463.31;6304671;28;20328;-68
2022/02/11 11:33:31;;;;;;;35.65;20.35;;;;;;;9.86;81.07;100473.72;6322574;28;20068;-69
2022/02/11 11:36:33;;;;;;;34.35;19.65;;;;;;;10.03;79.62;100470.25;6288034;28;20039;-68
2022/02/11 11:39:35;;;;;;;37.42;21.13;;;;;;;10.12;80.14;100466.31;6304574;28;20550;-73
2022/02/11 11:42:36;;;;;;;34.60;20.80;;;;;;;10.14;79.49;100464.47;6304220;28;20043;-68
2022/02/11 11:45:37;;;;;;;38.85;21.35;;;;;;;10.16;79.15;100465.22;6304246;28;20507;-68
2022/02/11 11:49:04;;;;;;;37.15;21.90;;;;;;;10.35;80.28;100457.28;6287859;28;20040;-72
2022/02/11 11:52:07;;;;;;;37.28;21.50;;;;;;;10.37;79.38;100454.59;6321164;28;20068;-73
2022/02/11 11:55:21;;;;;;;48.85;25.15;;;;;;;10.43;78.58;100449.06;6294559;28;20048;-72
2022/02/11 11:58:45;;;;;;;36.33;21.48;;;;;;;10.49;77.72;100448.72;6279161;28;20040;-71
2022/02/11 12:01:58;;;;;;;34.30;20.40;;;;;;;10.32;79.37;100446.19;6278830;28;20389;-72
2022/02/11 12:05:01;;;;;;;32.78;20.17;;;;;;;10.46;80.72;100446.31;6296635;28;20060;-73
2022/02/11 12:08:02;;;;;;;35.25;21.40;;;;;;;10.55;80.83;100444.94;6278704;28;20049;-73
2022/02/11 12:11:03;;;;;;;118.90;50.53;;;;;;;10.50;78.02;100445.22;6296602;28;20445;-73
2022/02/11 12:14:05;;;;;;;35.40;21.70;;;;;;;10.57;78.48;100445.72;6278872;28;20382;-68
2022/02/11 12:17:08;;;;;;;30.98;18.55;;;;;;;10.40;79.14;100434.41;6296493;28;20508;-68
2022/02/11 12:20:09;;;;;;;33.20;20.10;;;;;;;10.34;79.61;100436.53;6296366;28;20040;-68
2022/02/11 12:30:09;;;;;;;34.88;18.27;;;;;;;10.63;79.05;100427.09;6274276;28;20064;-73
2022/02/11 12:33:21;;;;;;;30.83;17.88;;;;;;;10.67;78.00;100424.22;6296200;28;20045;-73
2022/02/11 12:36:24;;;;;;;;;;;;;;;10.61;74.06;100418.53;6296537;28;20047;-73
2022/02/11 12:39:30;;;;;;;26.38;16.63;;;;;;;10.68;74.55;100419.84;6263376;28;19920;-73
2022/02/11 12:42:57;;;;;;;30.50;17.33;;;;;;;10.61;74.35;100414.13;6280977;28;20049;-73
2022/02/11 12:46:18;;;;;;;30.48;17.55;;;;;;;10.77;74.60;100415.88;6296294;28;20056;-73
2022/02/11 12:49:44;;;;;;;27.83;16.42;;;;;;;10.88;74.46;100409.13;6281401;28;20147;-68
2022/02/11 12:53:07;;;;;;;28.65;16.85;;;;;;;11.02;74.43;100410.97;6296051;28;20063;-73
2022/02/11 12:56:32;;;;;;;24.15;15.27;;;;;;;10.92;71.38;100409.81;6316047;28;20060;-69
2022/02/11 12:59:47;;;;;;;22.92;13.55;;;;;;;11.05;70.51;100407.34;6309374;28;20067;-69
2022/02/11 13:02:50;;;;;;;23.38;14.35;;;;;;;11.13;70.73;100402.50;6311143;28;20040;-73
2022/02/11 13:05:52;;;;;;;28.40;14.27;;;;;;;11.21;70.32;100405.53;6329254;28;20046;-69
2022/02/11 13:09:05;;;;;;;26.55;15.90;;;;;;;11.45;69.79;100408.47;6311087;28;20052;-73
2022/02/11 13:12:07;;;;;;;24.75;15.00;;;;;;;11.75;68.18;100406.72;6329207;28;20048;-69
2022/02/11 13:15:20;;;;;;;24.67;14.75;;;;;;;12.12;65.64;100402.75;6311156;28;20044;-73
2022/02/11 13:18:22;;;;;;;21.88;14.32;;;;;;;12.41;63.85;100400.91;6329051;28;20485;-68
2022/02/11 13:21:27;;;;;;;25.95;13.05;;;;;;;12.53;64.01;100399.31;6295173;28;20044;-69
2022/02/11 13:24:31;;;;;;;28.33;13.82;;;;;;;12.50;64.57;100402.13;6329031;28;20040;-74
2022/02/11 13:27:51;;;;;;;24.38;13.77;;;;;;;12.44;63.49;100395.50;6329130;28;20123;-73
2022/02/11 13:31:00;;;;;;;23.20;13.75;;;;;;;12.44;64.07;100397.28;6310895;28;20048;-68
2022/02/11 13:34:07;;;;;;;26.52;13.65;;;;;;;12.37;61.54;100396.81;6328870;28;20467;-69
2022/02/11 13:37:10;;;;;;;26.27;13.60;;;;;;;12.28;61.87;100398.22;6328943;28;20483;-69
2022/02/11 13:40:23;;;;;;;23.05;12.63;;;;;;;12.16;63.16;100396.38;6329080;28;20036;-69
2022/02/11 13:43:44;;;;;;;23.80;13.38;;;;;;;12.10;62.48;100391.53;6328635;28;20046;-69
2022/02/11 13:46:53;;;;;;;26.80;13.35;;;;;;;12.08;62.60;100386.38;6328992;28;20089;-68
2022/02/11 13:50:02;;;;;;;25.08;12.88;;;;;;;12.14;62.70;100392.19;6328702;28;20044;-69
2022/02/11 13:53:03;;;;;;;21.75;13.35;;;;;;;12.19;62.15;100393.59;6310582;28;20044;-69
2022/02/11 13:56:10;;;;;;;33.60;14.93;;;;;;;12.27;61.87;100387.84;6328427;28;20171;-68
2022/02/11 13:59:13;;;;;;;24.88;12.70;;;;;;;12.38;62.55;100382.81;6310823;28;20036;-69
2022/02/11 14:02:20;;;;;;;22.48;13.43;;;;;;;12.45;60.77;100389.31;6310560;28;20068;-73
2022/02/11 14:05:22;;;;;;;25.80;12.75;;;;;;;12.72;61.01;100393.72;6328584;28;20161;-73
2022/02/11 14:08:38;;;;;;;17.50;11.27;;;;;;;12.77;58.77;100393.44;6328653;28;20047;-69
2022/02/11 14:11:40;;;;;;;27.38;11.45;;;;;;;12.87;58.28;100400.59;6273163;28;20048;-69
2022/02/11 14:14:56;;;;;;;19.65;11.50;;;;;;;12.85;59.59;100393.78;6318025;28;20043;-74
2022/02/11 14:17:57;;;;;;;26.65;12.27;;;;;;;12.86;59.80;100395.47;6318695;28;20400;-72
2022/02/11 14:20:58;;;;;;;18.33;11.23;;;;;;;12.70;58.66;100392.97;6289410;28;20552;-73
2022/02/11 14:24:01;;;;;;;25.02;11.93;;;;;;;12.66;58.37;100392.38;6324401;28;20046;-72
2022/02/11 14:27:03;;;;;;;17.58;10.05;;;;;;;12.55;60.37;100384.34;6319642;28;20480;-72
2022/02/11 14:30:05;;;;;;;26.63;13.02;;;;;;;12.56;61.17;100377.31;6296150;28;20040;-67
2022/02/11 14:33:06;;;;;;;27.48;14.75;;;;;;;12.42;61.04;100386.91;6306388;28;20052;-73
2022/02/11 14:36:07;;;;;;;32.53;16.48;;;;;;;12.34;61.03;100377.88;6296620;28;20392;-72
2022/02/11 14:39:13;;;;;;;21.08;12.27;;;;;;;12.15;62.56;100383.38;6264627;28;20480;-67
2022/02/11 14:42:14;;;;;;;22.67;13.13;;;;;;;12.11;62.74;100382.75;6281108;28;20072;-72
2022/02/11 14:45:15;;;;;;;21.77;11.60;;;;;;;11.99;62.82;100386.97;6304563;28;20044;-72
2022/02/11 14:48:16;;;;;;;24.65;11.35;;;;;;;11.86;62.57;100392.09;6289334;28;20040;-72
2022/02/11 14:51:18;;;;;;;20.65;11.45;;;;;;;11.85;63.99;100394.78;6305988;28;20047;-72
2022/02/11 14:54:19;;;;;;;22.45;12.13;;;;;;;11.71;65.21;100387.78;6323455;28;20067;-67
2022/02/11 14:57:21;;;;;;;20.40;11.32;;;;;;;11.61;65.41;100399.72;6305960;28;20044;-67
2022/02/11 15:00:22;;;;;;;30.88;12.20;;;;;;;11.49;66.30;100391.69;6305532;28;20450;-68
2022/02/11 15:03:23;;;;;;;18.52;10.35;;;;;;;11.49;66.31;100399.53;6305513;28;20063;-72
2022/02/11 15:06:24;;;;;;;25.75;11.77;;;;;;;11.41;66.88;100391.31;6288677;28;20043;-72
2022/02/11 15:09:26;;;;;;;21.00;10.88;;;;;;;11.38;67.02;100391.47;6305607;28;20124;-74
2022/02/11 15:12:27;;;;;;;24.08;12.45;;;;;;;11.34;67.75;100389.13;6323296;28;20048;-69
2022/02/11 15:15:29;;;;;;;28.27;13.55;;;;;;;11.24;68.29;100391.44;6323056;28;20058;-72
2022/02/11 15:18:30;;;;;;;34.28;16.15;;;;;;;11.15;69.30;100397.19;6306284;28;20040;-68
2022/02/11 15:21:33;;;;;;;36.00;17.10;;;;;;;11.09;69.36;100391.38;6262926;28;20071;-68
2022/02/11 15:24:33;;;;;;;;;;;;;;;11.04;70.14;100396.06;6280563;28;20124;-72
2022/02/11 15:27:35;;;;;;;35.95;16.40;;;;;;;11.00;70.15;100405.00;6279965;28;19921;-67
2022/02/11 15:30:36;;;;;;;44.75;20.75;;;;;;;10.94;71.33;100401.91;6279801;28;20067;-68
2022/02/11 15:33:38;;;;;;;31.80;15.07;;;;;;;10.89;71.35;100402.13;6279709;28;20048;-72
2022/02/11 15:36:41;;;;;;;37.97;19.85;;;;;;;10.81;72.09;100405.19;6279368;28;20056;-72
2022/02/11 15:39:42;;;;;;;30.25;16.48;;;;;;;10.73;72.46;100404.78;6279683;28;20044;-68
2022/02/11 15:42:43;;;;;;;25.57;14.20;;;;;;;10.67;72.49;100410.34;6279826;28;20041;-68
2022/02/11 15:45:44;;;;;;;35.20;14.88;;;;;;;10.53;73.47;100418.09;6263057;28;20040;-67
2022/02/11 15:48:45;;;;;;;37.45;18.88;;;;;;;10.40;75.47;100424.00;6297354;28;20045;-68
2022/02/11 15:51:46;;;;;;;28.30;16.77;;;;;;;10.33;76.89;100427.84;6297688;28;20123;-68
2022/02/11 15:54:47;;;;;;;32.75;15.48;;;;;;;10.31;77.12;100419.25;6279112;28;20514;-72
2022/02/11 15:57:49;;;;;;;28.27;15.48;;;;;;;10.30;77.86;100433.22;6297059;28;20037;-69
2022/02/11 16:00:51;;;;;;;41.42;17.70;;;;;;;10.31;77.23;100432.28;6262721;28;20032;-68
2022/02/11 16:03:52;;;;;;;35.15;18.48;;;;;;;10.28;77.55;100435.06;6279142;28;20394;-73
2022/02/11 16:06:54;;;;;;;29.20;17.20;;;;;;;10.21;78.09;100428.47;6278971;28;20045;-73
2022/02/11 16:09:55;;;;;;;35.38;17.17;;;;;;;10.16;77.73;100433.94;6279225;28;20036;-73
2022/02/11 16:12:56;;;;;;;30.33;18.33;;;;;;;10.14;78.01;100438.38;6267063;28;20039;-68
2022/02/11 16:15:58;;;;;;;30.75;17.63;;;;;;;10.09;78.53;100448.22;6303142;28;20644;-73
2022/02/11 16:18:59;;;;;;;36.87;19.37;;;;;;;10.02;78.51;100447.69;6303399;28;20048;-73
2022/02/11 16:22:04;;;;;;;46.60;24.88;;;;;;;9.91;79.15;100443.97;6304241;28;20292;-69
2022/02/11 16:25:06;;;;;;;46.38;26.48;;;;;;;9.66;80.94;100453.06;6303879;28;20484;-69
2022/02/11 16:28:10;;;;;;;49.25;28.08;;;;;;;9.69;81.77;100461.53;6322232;28;20040;-69
2022/02/11 16:31:20;;;;;;;53.58;26.95;;;;;;;9.62;81.87;100470.59;6322253;28;20040;-69
2022/02/11 16:34:22;;;;;;;40.85;24.15;;;;;;;9.62;81.34;100477.59;6321318;28;20036;-68
2022/02/11 16:37:24;;;;;;;65.00;30.83;;;;;;;9.56;81.21;100478.72;6322079;28;20048;-68
2022/02/11 16:40:25;;;;;;;35.70;20.75;;;;;;;9.49;78.89;100490.34;6321028;28;20498;-69
2022/02/11 16:43:26;;;;;;;33.22;17.08;;;;;;;9.59;75.30;100488.97;6323129;28;20043;-68
2022/02/11 16:46:28;;;;;;;37.53;18.20;;;;;;;9.55;75.58;100484.84;6267339;28;20691;-69
2022/02/11 16:49:30;;;;;;;38.55;20.38;;;;;;;9.63;75.85;100494.88;6322536;28;20085;-69
2022/02/11 16:52:33;;;;;;;26.33;15.35;;;;;;;9.46;75.50;100493.13;6305170;28;20052;-69
2022/02/11 16:55:36;;;;;;;29.05;13.45;;;;;;;9.44;76.14;100492.34;6305054;28;20097;-69
2022/02/11 16:58:37;;;;;;;20.65;11.43;;;;;;;9.11;78.14;100494.84;6320001;28;20111;-68
2022/02/11 17:01:43;;;;;;;31.08;14.38;;;;;;;9.01;79.22;100497.88;6305318;28;20043;-68
2022/02/11 17:04:44;;;;;;;27.85;13.88;;;;;;;8.99;80.63;100493.66;6286543;28;20055;-68
2022/02/11 17:07:45;;;;;;;21.20;11.10;;;;;;;8.80;81.48;100504.09;6287849;28;20052;-68
2022/02/11 17:10:48;;;;;;;;;;;;;;;8.80;82.33;100493.69;6304206;28;20036;-68
2022/02/11 17:13:50;;;;;;;58.20;25.13;;;;;;;8.81;83.97;100504.03;6321900;28;20002;-69
2022/02/11 17:16:51;;;;;;;26.65;14.55;;;;;;;8.90;86.43;100500.16;6286698;28;20236;-69
2022/02/11 17:19:52;;;;;;;31.98;17.00;;;;;;;8.61;89.74;100502.34;6304528;28;20056;-69
2022/02/11 17:22:53;;;;;;;43.92;20.23;;;;;;;8.62;90.57;100501.41;6322054;28;20040;-69
2022/02/11 17:25:55;;;;;;;55.63;25.93;;;;;;;8.75;90.79;100508.66;6287344;28;20036;-69
2022/02/11 17:28:56;;;;;;;50.08;25.00;;;;;;;8.71;91.65;100507.97;6301313;28;20279;-69
2022/02/11 17:31:57;;;;;;;117.43;44.58;;;;;;;8.38;94.96;100507.69;6299250;28;20084;-69
2022/02/11 17:34:58;;;;;;;83.90;35.08;;;;;;;8.34;95.90;100514.81;6322305;28;20086;-69
2022/02/11 17:38:00;;;;;;;27.30;16.63;;;;;;;8.33;94.49;100523.50;6321859;28;20430;-69
2022/02/11 17:41:01;;;;;;;36.90;20.60;;;;;;;8.46;93.03;100526.41;6303331;28;20056;-69
2022/02/11 17:44:04;;;;;;;112.10;46.20;;;;;;;8.42;92.02;100522.28;6313686;28;20048;-70
2022/02/11 17:47:06;;;;;;;67.38;32.70;;;;;;;8.35;91.69;100523.44;6323200;28;20048;-70
2022/02/11 17:50:09;;;;;;;36.95;21.27;;;;;;;8.27;92.34;100529.81;6323495;28;20044;-69
2022/02/11 17:53:11;;;;;;;31.05;18.75;;;;;;;8.05;92.32;100527.31;6320584;28;20040;-69
2022/02/11 17:56:12;;;;;;;28.20;17.27;;;;;;;8.02;91.92;100531.78;6325347;28;20516;-69
2022/02/11 17:59:14;;;;;;;20.38;13.23;;;;;;;8.11;91.05;100528.78;6325926;28;20036;-69
2022/02/11 18:02:16;;;;;;;23.83;13.27;;;;;;;8.04;92.84;100548.16;6325687;28;20097;-69